Share

Axstal, Sweden

6:23 PM CEST on April 24, 2014 (GMT +0200)
Vadstena (ISTERGTL8) Elev 300 ft | 58.45 °N, 14.90 °E | Change Station

Current weather conditions updated 3 seconds ago

Clear
Clear
50.7 °F
Feels Like 50.7 °F
N
4.9
Wind Variable Wind from ESE
Gusts 15.0 mph
Sunrise 5:25 AM
Sunset 8:35 PM
Moon Waning Crescent

Tomorrow is forecast to be Warmer than today.

Pressure 30.33 in
Visibility 6.2 miles
Clouds
Dew Point 23 °F
Humidity 34%
Rainfall 0.00 in
Snow Depth Not available.
UV Not available.
Pollen Not available.
Air Quality Not available.
Flu Activity Not available.
METAR ESGR 241550Z AUTO 07010KT 9999 NCD 12/M02 Q1027

More Conditions Fewer Conditions

Pressure 30.33 in
Visibility 6.2 miles
Clouds
Dew Point 23 °F
Humidity 34%
Rainfall 0.00 in
Snow Depth Not available.
UV Not available.
Pollen Not available.
Air Quality Not available.
Flu Activity Not available.
METAR ESGR 241550Z AUTO 07010KT 9999 NCD 12/M02 Q1027

More Conditions Fewer Conditions

10-Day Weather Forecast

Almanac

Astronomy

Apr. 24, 2014 Rise Set
Actual Time 5:25 AM CEST 8:35 PM CEST
Civil Twilight 4:38 AM CEST 9:22 PM CEST
Nautical Twilight 3:34 AM CEST 10:27 PM CEST
Astronomical Twilight 1:47 AM CEST 12:24 AM CEST
Moon 3:38 AM CEST 2:23 PM CEST
Length of Visible Light 16h 44m
Length of Day
15h 10m
Tomorrow will be 4m 58s longer.
Waning Crescent, 24% of the Moon is Illuminated
Today
Waning Crescent
Apr 29
New
May 6
First Quarter
May 14
Full
May 21
Last Quarter

Today's Extremes

Country Highs Country Lows

Community

  • Sunset at Apalachicola Bay, Florida
    Sunset at Apalachicola Bay, Florida
  • Clouds mov'n in
    Clouds mov'n in
  • Stacked
    Stacked
  • clouds approaching Red Sox Nation
    clouds approaching Red Sox Nation
  • Balance
    Balance

WunderPhotos

Upload Photos

1,704,657 photos uploaded!

Nearby

Snow Depth

Not available.

Coastal Water Temperatures

Place Temperature
No Stations Reporting

Earthquake Activity

City Distance Mag. Time & Date
No recent earthquake activity has been reported nearby.
Minimum magnitude displayed is 2.5.

Nearby Weather Stations

Station Location Temp. Dew Point Humidity Wind Precip. Elev Updated Type
Vadstena, Vadstena 50.7 °F 23 °F 34% ESE  at  4.9 mph 0.00 in / hr 300 ft 6:23 PM CEST Rapid Fire
Naturbruksgymnasiet Sotasen, T�reboda 51.1 °F 25 °F 37% ESE  at  4.0 mph 0.00 in / hr 318 ft 6:13 PM CEST Normal
Hov, Vadstena, Vadstena 50.2 °F 29 °F 45% East  at  7.0 mph 0.00 in / hr 351 ft 6:16 PM CEST Normal

Show More Stations Show Fewer Stations

What do you think?

We're not finished. Please let us know what you like, what you don't like, and what you are still missing.